Boeing Field King County International Airport
KBFI : now visible

Airfield :











YOU CAN JOIN US ON...

 
LOGIN :

Register | Disclaimer

   EN    FR    IT 

 









Legend :    VFR   Marginal VFR   IFR   Intensive IFR   Very Intensive IFR
Visi :
Ceiling :
>= 8 km
>= 3000ft
5 to 8 km
1000 to 3000 ft
1500m to 5 km
500 to 1000 ft
800 to 1500m
200 to 500 ft
< 800m
< 200 ft
Symbols :   Thunderstorms  Fog  Heavy snow  Heavy precipitations  Wind > 20 kt






- Airport Elevation : 21 ft
- IATA code : BFI


KBFI - Boeing Field King County International

CURRENT METAR :
  • 211453Z VRB06KT 10SM BKN024 09/04 A3037 RMK AO2 SLP285 T00890039 53015

EXPIRED METARs :
  • 211353Z 15005KT 10SM FEW021 07/03 A3035 RMK AO2 SLP278 T00720033
  • 211253Z 18006KT 10SM CLR 07/03 A3034 RMK AO2 SLP273 T00720033
  • 211153Z AUTO 17006KT 10SM CLR 07/03 A3033 RMK AO2 SLP270 T00670028 10094 20067 51018
  • 211053Z AUTO VRB06KT 10SM FEW024 08/03 A3032 RMK AO2 SLP266 T00830033
  • 211028Z AUTO 19004G14KT 10SM SCT028 08/03 A3031 RMK AO2 T00780033

TAF KBFI
Valid from the 21 at 15:00 until the 22 at 12:00 UTC


211456Z 2115/2212 16007KT P6SM BKN025
FM211800 19008KT P6SM VCSH BKN050
FM212200 24007KT P6SM VCSH BKN060
FM220300 31005KT P6SM SCT060
FM220600 VRB02KT P6SM BKN050
KZSE FIR / North America



MET'MAP, your aeronautical weather chart ! - Copyright ORBIFLY December 2007 - Disclaimer

ORBIFLY MET'MAP TEAM :

Programming & Development : Alexandra Zaïnal
Original concept : Baudouin d'Aumeries
Technical & hardware support : Manuel Goepfert
Assistance : Marc-Olivier Méhu




SOURCES & CREDITS :

   NOAA       Earth
Advisory